Magic Star — DHBB2 — position and weather

sailwx.info

Track history (hours):
 
Tides and Currents Weather Stations Pressure Air Temp Water Temp Dewpoint Dewpoint Depression Visibility Wind Speed Wind Dir Waves Ship Positions

Magic Star

Last reported at 2018-Jun-21 17:27 UTC. Time now 2018-Jun-21 17:50 UTC.
Position N 50°46' W 001°18'.

Length 17 m.

Type: Sailing vessel. MMSI: 211536060.

Date/timePositionNaut miles runAvg speedWind from/ knotsBaromVisibWave heightAir tempDewpointWater temp
2018-Jun-21 17:27N 50°46' W 001°18'0 0.0
2018-Jun-21 16:57N 50°46' W 001°18'0 0.0
2018-Jun-21 16:27N 50°46' W 001°18'0 0.0
2018-Jun-21 16:00N 50°46' W 001°18'0 0.0
2018-Jun-21 15:30N 50°46' W 001°18'0 0.0
2018-Jun-21 14:57N 50°46' W 001°18'0 0.0
2018-Jun-21 14:27N 50°46' W 001°18'0 0.0
2018-Jun-21 14:00N 50°46' W 001°18'0 0.0
2018-Jun-21 13:30N 50°46' W 001°18'0 0.0
2018-Jun-21 12:56N 50°46' W 001°18'2 3.6
2018-Jun-21 12:25N 50°46' W 001°21'23 6.4
2018-Jun-21 08:51N 50°35' W 001°52'2 5.2
2018-Jun-21 08:30N 50°34' W 001°55'45 6.2
2018-Jun-21 01:16N 50°17' W 002°59'2 8.8
2018-Jun-21 00:59N 50°16' W 003°03'4 7.9
2018-Jun-21 00:26N 50°14' W 003°10'4 8.4
2018-Jun-21 00:00N 50°14' W 003°15'4 8.4
2018-Jun-20 23:30N 50°13' W 003°22'4 7.2
2018-Jun-20 22:57N 50°11' W 003°27'3 6.4
2018-Jun-20 22:29N 50°10' W 003°32'3 6.2
2018-Jun-20 21:59N 50°09' W 003°36'3 5.1
2018-Jun-20 21:30N 50°09' W 003°40'  
2018-Jun-11 22:41N 38°37' W 025°36'3 5.6
2018-Jun-11 22:09N 38°34' W 025°37'2 5.3
2018-Jun-11 21:45N 38°32' W 025°38'2 5.4
2018-Jun-11 21:28N 38°30' W 025°39'3 5.5
2018-Jun-11 20:56N 38°27' W 025°40'3 6.0
2018-Jun-11 20:22N 38°24' W 025°41'2 6.5
2018-Jun-11 20:00N 38°22' W 025°41'3 6.2
2018-Jun-11 19:30N 38°19' W 025°42'3 6.1
2018-Jun-11 19:00N 38°16' W 025°43'3 5.8
2018-Jun-11 18:30N 38°13' W 025°43'3 6.0
2018-Jun-11 18:00N 38°10' W 025°44'3 6.2
2018-Jun-11 17:30N 38°07' W 025°45'  
Track history (hours):
 
Tides and Currents Weather Stations Pressure Air Temp Water Temp Dewpoint Dewpoint Depression Visibility Wind Speed Wind Dir Waves Ship Positions

Magic Star

Last reported at 2018-Jun-21 17:27 UTC. Time now 2018-Jun-21 17:50 UTC.
Position N 50°46' W 001°18'.

Length 17 m.

Type: Sailing vessel. MMSI: 211536060.

Date/timePositionNaut miles runAvg speedWind from/ knotsBaromVisibWave heightAir tempDewpointWater temp
2018-Jun-21 17:27N 50°46' W 001°18'0 0.0
2018-Jun-21 16:57N 50°46' W 001°18'0 0.0
2018-Jun-21 16:27N 50°46' W 001°18'0 0.0
2018-Jun-21 16:00N 50°46' W 001°18'0 0.0
2018-Jun-21 15:30N 50°46' W 001°18'0 0.0
2018-Jun-21 14:57N 50°46' W 001°18'0 0.0
2018-Jun-21 14:27N 50°46' W 001°18'0 0.0
2018-Jun-21 14:00N 50°46' W 001°18'0 0.0
2018-Jun-21 13:30N 50°46' W 001°18'0 0.0
2018-Jun-21 12:56N 50°46' W 001°18'2 3.6
2018-Jun-21 12:25N 50°46' W 001°21'23 6.4
2018-Jun-21 08:51N 50°35' W 001°52'2 5.2
2018-Jun-21 08:30N 50°34' W 001°55'45 6.2
2018-Jun-21 01:16N 50°17' W 002°59'2 8.8
2018-Jun-21 00:59N 50°16' W 003°03'4 7.9
2018-Jun-21 00:26N 50°14' W 003°10'4 8.4
2018-Jun-21 00:00N 50°14' W 003°15'4 8.4
2018-Jun-20 23:30N 50°13' W 003°22'4 7.2
2018-Jun-20 22:57N 50°11' W 003°27'3 6.4
2018-Jun-20 22:29N 50°10' W 003°32'3 6.2
2018-Jun-20 21:59N 50°09' W 003°36'3 5.1
2018-Jun-20 21:30N 50°09' W 003°40'  
2018-Jun-11 22:41N 38°37' W 025°36'3 5.6
2018-Jun-11 22:09N 38°34' W 025°37'2 5.3
2018-Jun-11 21:45N 38°32' W 025°38'2 5.4
2018-Jun-11 21:28N 38°30' W 025°39'3 5.5
2018-Jun-11 20:56N 38°27' W 025°40'3 6.0
2018-Jun-11 20:22N 38°24' W 025°41'2 6.5
2018-Jun-11 20:00N 38°22' W 025°41'3 6.2
2018-Jun-11 19:30N 38°19' W 025°42'3 6.1
2018-Jun-11 19:00N 38°16' W 025°43'3 5.8
2018-Jun-11 18:30N 38°13' W 025°43'3 6.0
2018-Jun-11 18:00N 38°10' W 025°44'3 6.2
2018-Jun-11 17:30N 38°07' W 025°45'  

Dump ship's entire track history